sensor_id;sensor_type;location;lat;lon;timestamp;P1;durP1;ratioP1;P2;durP2;ratioP2
1479;SDS011;732;51.698;4.886;2023-02-28T00:01:34;9.13;;;5.33;;
1479;SDS011;732;51.698;4.886;2023-02-28T00:04:04;6.23;;;5.13;;
1479;SDS011;732;51.698;4.886;2023-02-28T00:06:36;8.90;;;5.73;;
1479;SDS011;732;51.698;4.886;2023-02-28T00:09:05;12.27;;;5.70;;
1479;SDS011;732;51.698;4.886;2023-02-28T00:11:33;7.00;;;5.20;;
1479;SDS011;732;51.698;4.886;2023-02-28T00:14:04;9.67;;;5.50;;
1479;SDS011;732;51.698;4.886;2023-02-28T00:16:32;9.17;;;5.93;;
1479;SDS011;732;51.698;4.886;2023-02-28T00:19:01;9.37;;;5.80;;
1479;SDS011;732;51.698;4.886;2023-02-28T00:21:31;6.80;;;4.77;;
1479;SDS011;732;51.698;4.886;2023-02-28T00:23:59;8.40;;;5.00;;
1479;SDS011;732;51.698;4.886;2023-02-28T00:26:28;7.63;;;5.10;;
1479;SDS011;732;51.698;4.886;2023-02-28T00:28:56;8.00;;;5.93;;
1479;SDS011;732;51.698;4.886;2023-02-28T00:31:25;10.63;;;5.00;;
1479;SDS011;732;51.698;4.886;2023-02-28T00:33:54;13.80;;;6.20;;
1479;SDS011;732;51.698;4.886;2023-02-28T00:36:22;7.47;;;4.57;;
1479;SDS011;732;51.698;4.886;2023-02-28T00:38:52;9.50;;;5.63;;
1479;SDS011;732;51.698;4.886;2023-02-28T00:41:21;6.90;;;5.07;;
1479;SDS011;732;51.698;4.886;2023-02-28T00:43:49;7.10;;;5.07;;
1479;SDS011;732;51.698;4.886;2023-02-28T00:46:18;10.20;;;6.17;;
1479;SDS011;732;51.698;4.886;2023-02-28T00:48:46;15.87;;;6.40;;
1479;SDS011;732;51.698;4.886;2023-02-28T00:51:15;9.57;;;5.50;;
1479;SDS011;732;51.698;4.886;2023-02-28T00:53:43;8.90;;;5.97;;
1479;SDS011;732;51.698;4.886;2023-02-28T00:56:14;11.07;;;6.07;;
1479;SDS011;732;51.698;4.886;2023-02-28T00:58:42;8.53;;;5.50;;
1479;SDS011;732;51.698;4.886;2023-02-28T01:01:10;10.23;;;5.70;;
1479;SDS011;732;51.698;4.886;2023-02-28T01:03:39;9.40;;;5.10;;
1479;SDS011;732;51.698;4.886;2023-02-28T01:06:08;8.63;;;5.30;;
1479;SDS011;732;51.698;4.886;2023-02-28T01:08:37;6.80;;;5.13;;
1479;SDS011;732;51.698;4.886;2023-02-28T01:11:09;10.80;;;5.80;;
1479;SDS011;732;51.698;4.886;2023-02-28T01:13:41;8.27;;;5.33;;
1479;SDS011;732;51.698;4.886;2023-02-28T01:16:11;10.50;;;5.40;;
1479;SDS011;732;51.698;4.886;2023-02-28T01:18:40;8.63;;;4.70;;
1479;SDS011;732;51.698;4.886;2023-02-28T01:21:10;7.27;;;4.80;;
1479;SDS011;732;51.698;4.886;2023-02-28T01:23:43;6.50;;;4.43;;
1479;SDS011;732;51.698;4.886;2023-02-28T01:26:13;10.70;;;5.23;;
1479;SDS011;732;51.698;4.886;2023-02-28T01:28:45;6.17;;;4.40;;
1479;SDS011;732;51.698;4.886;2023-02-28T01:31:14;7.40;;;5.17;;
1479;SDS011;732;51.698;4.886;2023-02-28T01:33:46;8.07;;;4.90;;
1479;SDS011;732;51.698;4.886;2023-02-28T01:36:15;7.90;;;5.40;;
1479;SDS011;732;51.698;4.886;2023-02-28T01:38:46;7.33;;;5.00;;
1479;SDS011;732;51.698;4.886;2023-02-28T01:41:16;8.47;;;5.30;;
1479;SDS011;732;51.698;4.886;2023-02-28T01:43:59;6.60;;;5.10;;
1479;SDS011;732;51.698;4.886;2023-02-28T01:46:33;9.23;;;5.27;;
1479;SDS011;732;51.698;4.886;2023-02-28T01:49:05;13.20;;;5.97;;
1479;SDS011;732;51.698;4.886;2023-02-28T01:51:39;7.10;;;4.60;;
1479;SDS011;732;51.698;4.886;2023-02-28T01:54:14;9.70;;;6.17;;
1479;SDS011;732;51.698;4.886;2023-02-28T01:56:46;11.20;;;5.70;;
1479;SDS011;732;51.698;4.886;2023-02-28T01:59:22;7.40;;;5.30;;
1479;SDS011;732;51.698;4.886;2023-02-28T02:01:54;7.70;;;5.27;;
1479;SDS011;732;51.698;4.886;2023-02-28T02:04:23;8.23;;;5.43;;
1479;SDS011;732;51.698;4.886;2023-02-28T02:07:02;9.27;;;5.53;;
1479;SDS011;732;51.698;4.886;2023-02-28T02:09:31;8.70;;;5.60;;
1479;SDS011;732;51.698;4.886;2023-02-28T02:12:00;7.73;;;4.53;;
1479;SDS011;732;51.698;4.886;2023-02-28T02:14:53;10.03;;;5.53;;
1479;SDS011;732;51.698;4.886;2023-02-28T02:17:32;6.37;;;4.83;;
1479;SDS011;732;51.698;4.886;2023-02-28T02:20:17;7.70;;;5.63;;
1479;SDS011;732;51.698;4.886;2023-02-28T02:23:23;11.90;;;5.30;;
1479;SDS011;732;51.698;4.886;2023-02-28T02:29:35;10.53;;;5.60;;
1479;SDS011;732;51.698;4.886;2023-02-28T02:32:36;9.10;;;5.53;;
1479;SDS011;732;51.698;4.886;2023-02-28T02:35:47;10.03;;;5.80;;
1479;SDS011;732;51.698;4.886;2023-02-28T02:38:26;9.37;;;5.30;;
1479;SDS011;732;51.698;4.886;2023-02-28T02:41:04;13.93;;;6.30;;
1479;SDS011;732;51.698;4.886;2023-02-28T02:43:44;9.47;;;5.63;;
1479;SDS011;732;51.698;4.886;2023-02-28T02:46:19;8.47;;;5.53;;
1479;SDS011;732;51.698;4.886;2023-02-28T02:48:50;13.37;;;5.20;;
1479;SDS011;732;51.698;4.886;2023-02-28T02:51:26;8.70;;;5.10;;
1479;SDS011;732;51.698;4.886;2023-02-28T02:54:00;15.53;;;6.57;;
1479;SDS011;732;51.698;4.886;2023-02-28T02:56:34;7.43;;;5.40;;
1479;SDS011;732;51.698;4.886;2023-02-28T02:59:07;8.80;;;5.80;;
1479;SDS011;732;51.698;4.886;2023-02-28T03:01:41;8.60;;;5.40;;
1479;SDS011;732;51.698;4.886;2023-02-28T03:04:10;10.07;;;5.80;;
1479;SDS011;732;51.698;4.886;2023-02-28T03:06:47;8.50;;;5.57;;
1479;SDS011;732;51.698;4.886;2023-02-28T03:09:21;8.33;;;6.07;;
1479;SDS011;732;51.698;4.886;2023-02-28T03:11:49;6.07;;;4.80;;
1479;SDS011;732;51.698;4.886;2023-02-28T03:14:25;7.80;;;4.93;;
1479;SDS011;732;51.698;4.886;2023-02-28T03:20:25;7.53;;;5.13;;
1479;SDS011;732;51.698;4.886;2023-02-28T03:23:13;8.97;;;5.60;;
1479;SDS011;732;51.698;4.886;2023-02-28T03:25:51;8.67;;;4.97;;
1479;SDS011;732;51.698;4.886;2023-02-28T03:28:29;12.47;;;6.87;;
1479;SDS011;732;51.698;4.886;2023-02-28T03:31:07;8.63;;;5.90;;
1479;SDS011;732;51.698;4.886;2023-02-28T03:33:44;9.73;;;5.80;;
1479;SDS011;732;51.698;4.886;2023-02-28T03:36:22;8.20;;;5.50;;
1479;SDS011;732;51.698;4.886;2023-02-28T03:38:57;6.87;;;5.20;;
1479;SDS011;732;51.698;4.886;2023-02-28T03:41:30;10.73;;;6.30;;
1479;SDS011;732;51.698;4.886;2023-02-28T03:44:06;10.10;;;6.60;;
1479;SDS011;732;51.698;4.886;2023-02-28T03:46:42;7.67;;;5.70;;
1479;SDS011;732;51.698;4.886;2023-02-28T03:49:16;8.27;;;5.87;;
1479;SDS011;732;51.698;4.886;2023-02-28T03:51:49;8.17;;;5.60;;
1479;SDS011;732;51.698;4.886;2023-02-28T03:54:21;10.47;;;6.57;;
1479;SDS011;732;51.698;4.886;2023-02-28T03:56:56;10.10;;;7.20;;
1479;SDS011;732;51.698;4.886;2023-02-28T03:59:32;10.43;;;6.77;;
1479;SDS011;732;51.698;4.886;2023-02-28T04:02:05;10.73;;;6.50;;
1479;SDS011;732;51.698;4.886;2023-02-28T04:04:34;11.07;;;6.60;;
1479;SDS011;732;51.698;4.886;2023-02-28T04:07:04;14.47;;;8.77;;
1479;SDS011;732;51.698;4.886;2023-02-28T04:09:37;13.00;;;6.33;;
1479;SDS011;732;51.698;4.886;2023-02-28T04:12:06;10.00;;;7.10;;
1479;SDS011;732;51.698;4.886;2023-02-28T04:14:35;8.63;;;6.63;;
1479;SDS011;732;51.698;4.886;2023-02-28T04:17:03;8.80;;;6.40;;
1479;SDS011;732;51.698;4.886;2023-02-28T04:19:32;10.07;;;6.57;;
1479;SDS011;732;51.698;4.886;2023-02-28T04:22:00;12.53;;;7.07;;
1479;SDS011;732;51.698;4.886;2023-02-28T04:24:29;12.50;;;6.77;;
1479;SDS011;732;51.698;4.886;2023-02-28T04:26:59;15.83;;;8.20;;
1479;SDS011;732;51.698;4.886;2023-02-28T04:29:28;11.10;;;6.93;;
1479;SDS011;732;51.698;4.886;2023-02-28T04:31:58;14.13;;;6.53;;
1479;SDS011;732;51.698;4.886;2023-02-28T04:34:29;16.73;;;7.13;;
1479;SDS011;732;51.698;4.886;2023-02-28T04:36:59;9.00;;;7.17;;
1479;SDS011;732;51.698;4.886;2023-02-28T04:39:39;13.07;;;7.53;;
1479;SDS011;732;51.698;4.886;2023-02-28T04:42:10;14.60;;;8.20;;
1479;SDS011;732;51.698;4.886;2023-02-28T04:44:40;12.73;;;7.40;;
1479;SDS011;732;51.698;4.886;2023-02-28T04:47:08;13.93;;;8.10;;
1479;SDS011;732;51.698;4.886;2023-02-28T04:49:37;11.07;;;7.30;;
1479;SDS011;732;51.698;4.886;2023-02-28T04:52:05;12.53;;;6.93;;
1479;SDS011;732;51.698;4.886;2023-02-28T04:54:34;11.23;;;7.07;;
1479;SDS011;732;51.698;4.886;2023-02-28T04:57:04;11.17;;;7.27;;
1479;SDS011;732;51.698;4.886;2023-02-28T04:59:34;14.20;;;8.20;;
1479;SDS011;732;51.698;4.886;2023-02-28T05:02:03;13.03;;;7.20;;
1479;SDS011;732;51.698;4.886;2023-02-28T05:04:33;15.57;;;9.17;;
1479;SDS011;732;51.698;4.886;2023-02-28T05:07:02;16.87;;;10.47;;
1479;SDS011;732;51.698;4.886;2023-02-28T05:09:31;25.57;;;15.90;;
1479;SDS011;732;51.698;4.886;2023-02-28T05:12:01;21.93;;;13.50;;
1479;SDS011;732;51.698;4.886;2023-02-28T05:14:29;18.10;;;11.17;;
1479;SDS011;732;51.698;4.886;2023-02-28T05:16:59;15.80;;;9.77;;
1479;SDS011;732;51.698;4.886;2023-02-28T05:19:28;16.90;;;9.67;;
1479;SDS011;732;51.698;4.886;2023-02-28T05:21:56;13.57;;;8.47;;
1479;SDS011;732;51.698;4.886;2023-02-28T05:24:25;14.27;;;7.73;;
1479;SDS011;732;51.698;4.886;2023-02-28T05:26:54;11.13;;;8.00;;
1479;SDS011;732;51.698;4.886;2023-02-28T05:29:23;11.67;;;8.00;;
1479;SDS011;732;51.698;4.886;2023-02-28T05:31:51;16.93;;;8.33;;
1479;SDS011;732;51.698;4.886;2023-02-28T05:34:21;13.97;;;7.70;;
1479;SDS011;732;51.698;4.886;2023-02-28T05:36:50;10.23;;;6.80;;
1479;SDS011;732;51.698;4.886;2023-02-28T05:39:18;9.97;;;6.90;;
1479;SDS011;732;51.698;4.886;2023-02-28T05:41:47;14.50;;;7.70;;
1479;SDS011;732;51.698;4.886;2023-02-28T05:44:15;16.07;;;7.43;;
1479;SDS011;732;51.698;4.886;2023-02-28T05:46:44;10.37;;;6.37;;
1479;SDS011;732;51.698;4.886;2023-02-28T05:49:12;12.20;;;6.70;;
1479;SDS011;732;51.698;4.886;2023-02-28T05:51:42;11.50;;;6.43;;
1479;SDS011;732;51.698;4.886;2023-02-28T05:54:11;9.70;;;5.90;;
1479;SDS011;732;51.698;4.886;2023-02-28T05:56:39;8.80;;;6.23;;
1479;SDS011;732;51.698;4.886;2023-02-28T05:59:10;9.70;;;5.90;;
1479;SDS011;732;51.698;4.886;2023-02-28T06:01:40;8.60;;;6.23;;
1479;SDS011;732;51.698;4.886;2023-02-28T06:04:15;11.63;;;6.57;;
1479;SDS011;732;51.698;4.886;2023-02-28T06:06:58;12.50;;;7.00;;
1479;SDS011;732;51.698;4.886;2023-02-28T06:09:28;11.73;;;6.57;;
1479;SDS011;732;51.698;4.886;2023-02-28T06:11:57;14.93;;;8.30;;
1479;SDS011;732;51.698;4.886;2023-02-28T06:14:26;9.97;;;7.00;;
1479;SDS011;732;51.698;4.886;2023-02-28T06:16:55;11.50;;;6.83;;
1479;SDS011;732;51.698;4.886;2023-02-28T06:19:24;9.97;;;6.73;;
1479;SDS011;732;51.698;4.886;2023-02-28T06:21:54;12.43;;;7.50;;
1479;SDS011;732;51.698;4.886;2023-02-28T06:24:25;9.63;;;6.53;;
1479;SDS011;732;51.698;4.886;2023-02-28T06:26:58;9.37;;;7.30;;
1479;SDS011;732;51.698;4.886;2023-02-28T06:29:31;10.03;;;6.50;;
1479;SDS011;732;51.698;4.886;2023-02-28T06:32:00;12.50;;;6.60;;
1479;SDS011;732;51.698;4.886;2023-02-28T06:34:30;11.40;;;6.37;;
1479;SDS011;732;51.698;4.886;2023-02-28T06:37:00;7.83;;;5.57;;
1479;SDS011;732;51.698;4.886;2023-02-28T06:39:30;8.53;;;5.80;;
1479;SDS011;732;51.698;4.886;2023-02-28T06:41:59;8.50;;;4.83;;
1479;SDS011;732;51.698;4.886;2023-02-28T06:44:27;6.30;;;4.77;;
1479;SDS011;732;51.698;4.886;2023-02-28T06:47:01;8.07;;;5.10;;
1479;SDS011;732;51.698;4.886;2023-02-28T06:49:31;5.83;;;4.07;;
1479;SDS011;732;51.698;4.886;2023-02-28T06:52:01;7.47;;;5.17;;
1479;SDS011;732;51.698;4.886;2023-02-28T06:54:32;6.60;;;4.10;;
1479;SDS011;732;51.698;4.886;2023-02-28T06:57:02;10.27;;;4.70;;
1479;SDS011;732;51.698;4.886;2023-02-28T06:59:31;6.43;;;4.07;;
1479;SDS011;732;51.698;4.886;2023-02-28T07:02:01;5.20;;;4.50;;
1479;SDS011;732;51.698;4.886;2023-02-28T07:04:32;6.77;;;4.30;;
1479;SDS011;732;51.698;4.886;2023-02-28T07:07:01;5.03;;;4.00;;
1479;SDS011;732;51.698;4.886;2023-02-28T07:09:30;7.00;;;4.63;;
1479;SDS011;732;51.698;4.886;2023-02-28T07:12:00;8.77;;;4.40;;
1479;SDS011;732;51.698;4.886;2023-02-28T07:14:28;5.40;;;4.03;;
1479;SDS011;732;51.698;4.886;2023-02-28T07:16:57;8.80;;;4.80;;
1479;SDS011;732;51.698;4.886;2023-02-28T07:19:26;5.50;;;4.13;;
1479;SDS011;732;51.698;4.886;2023-02-28T07:21:55;7.67;;;4.53;;
1479;SDS011;732;51.698;4.886;2023-02-28T07:24:23;8.47;;;4.27;;
1479;SDS011;732;51.698;4.886;2023-02-28T07:26:54;10.10;;;4.53;;
1479;SDS011;732;51.698;4.886;2023-02-28T07:29:25;10.87;;;5.20;;
1479;SDS011;732;51.698;4.886;2023-02-28T07:31:55;9.20;;;4.93;;
1479;SDS011;732;51.698;4.886;2023-02-28T07:34:24;10.03;;;5.97;;
1479;SDS011;732;51.698;4.886;2023-02-28T07:36:53;14.07;;;6.23;;
1479;SDS011;732;51.698;4.886;2023-02-28T07:39:23;10.23;;;5.70;;
1479;SDS011;732;51.698;4.886;2023-02-28T07:41:51;7.03;;;4.83;;
1479;SDS011;732;51.698;4.886;2023-02-28T07:44:25;8.67;;;5.53;;
1479;SDS011;732;51.698;4.886;2023-02-28T07:46:54;8.30;;;5.10;;
1479;SDS011;732;51.698;4.886;2023-02-28T07:49:23;8.03;;;5.03;;
1479;SDS011;732;51.698;4.886;2023-02-28T07:51:52;6.20;;;4.70;;
1479;SDS011;732;51.698;4.886;2023-02-28T07:54:20;7.00;;;5.03;;
1479;SDS011;732;51.698;4.886;2023-02-28T07:56:49;7.97;;;5.40;;
1479;SDS011;732;51.698;4.886;2023-02-28T07:59:18;11.10;;;6.00;;
1479;SDS011;732;51.698;4.886;2023-02-28T08:01:50;13.47;;;6.10;;
1479;SDS011;732;51.698;4.886;2023-02-28T08:04:19;9.57;;;5.20;;
1479;SDS011;732;51.698;4.886;2023-02-28T08:06:48;7.10;;;5.13;;
1479;SDS011;732;51.698;4.886;2023-02-28T08:09:18;9.10;;;5.80;;
1479;SDS011;732;51.698;4.886;2023-02-28T08:11:47;7.30;;;5.40;;
1479;SDS011;732;51.698;4.886;2023-02-28T08:14:15;8.20;;;6.43;;
1479;SDS011;732;51.698;4.886;2023-02-28T08:16:44;10.50;;;5.97;;
1479;SDS011;732;51.698;4.886;2023-02-28T08:19:14;9.60;;;5.50;;
1479;SDS011;732;51.698;4.886;2023-02-28T08:21:42;9.33;;;5.97;;
1479;SDS011;732;51.698;4.886;2023-02-28T08:24:11;7.00;;;5.50;;
1479;SDS011;732;51.698;4.886;2023-02-28T08:26:39;11.27;;;6.07;;
1479;SDS011;732;51.698;4.886;2023-02-28T08:29:08;10.03;;;5.87;;
1479;SDS011;732;51.698;4.886;2023-02-28T08:31:37;14.47;;;6.17;;
1479;SDS011;732;51.698;4.886;2023-02-28T08:34:06;12.40;;;5.60;;
1479;SDS011;732;51.698;4.886;2023-02-28T08:36:37;8.50;;;5.73;;
1479;SDS011;732;51.698;4.886;2023-02-28T08:39:06;7.17;;;5.63;;
1479;SDS011;732;51.698;4.886;2023-02-28T08:41:35;12.17;;;5.77;;
1479;SDS011;732;51.698;4.886;2023-02-28T08:44:04;6.10;;;5.03;;
1479;SDS011;732;51.698;4.886;2023-02-28T08:46:34;7.00;;;5.47;;
1479;SDS011;732;51.698;4.886;2023-02-28T08:49:04;7.40;;;5.50;;
1479;SDS011;732;51.698;4.886;2023-02-28T08:51:33;9.50;;;5.27;;
1479;SDS011;732;51.698;4.886;2023-02-28T08:54:03;10.17;;;5.60;;
1479;SDS011;732;51.698;4.886;2023-02-28T08:56:34;7.50;;;5.37;;
1479;SDS011;732;51.698;4.886;2023-02-28T08:59:03;8.27;;;4.80;;
1479;SDS011;732;51.698;4.886;2023-02-28T09:01:31;6.20;;;5.13;;
1479;SDS011;732;51.698;4.886;2023-02-28T09:04:00;7.60;;;5.00;;
1479;SDS011;732;51.698;4.886;2023-02-28T09:06:29;9.27;;;5.00;;
1479;SDS011;732;51.698;4.886;2023-02-28T09:08:59;5.87;;;4.13;;
1479;SDS011;732;51.698;4.886;2023-02-28T09:11:29;6.80;;;4.70;;
1479;SDS011;732;51.698;4.886;2023-02-28T09:13:58;10.47;;;4.80;;
1479;SDS011;732;51.698;4.886;2023-02-28T09:16:31;5.70;;;3.13;;
1479;SDS011;732;51.698;4.886;2023-02-28T09:19:01;3.87;;;3.30;;
1479;SDS011;732;51.698;4.886;2023-02-28T09:21:32;3.80;;;3.40;;
1479;SDS011;732;51.698;4.886;2023-02-28T09:24:01;3.47;;;2.70;;
1479;SDS011;732;51.698;4.886;2023-02-28T09:26:33;3.03;;;2.13;;
1479;SDS011;732;51.698;4.886;2023-02-28T09:29:16;3.97;;;2.10;;
1479;SDS011;732;51.698;4.886;2023-02-28T09:31:45;4.20;;;2.60;;
1479;SDS011;732;51.698;4.886;2023-02-28T09:34:16;2.30;;;1.67;;
1479;SDS011;732;51.698;4.886;2023-02-28T09:36:44;2.43;;;2.23;;
1479;SDS011;732;51.698;4.886;2023-02-28T09:39:14;3.97;;;2.63;;
1479;SDS011;732;51.698;4.886;2023-02-28T09:41:45;3.77;;;2.10;;
1479;SDS011;732;51.698;4.886;2023-02-28T09:44:20;2.47;;;2.20;;
1479;SDS011;732;51.698;4.886;2023-02-28T09:46:57;3.10;;;2.60;;
1479;SDS011;732;51.698;4.886;2023-02-28T09:49:31;2.73;;;2.40;;
1479;SDS011;732;51.698;4.886;2023-02-28T09:52:09;4.40;;;2.80;;
1479;SDS011;732;51.698;4.886;2023-02-28T09:54:41;2.77;;;2.57;;
1479;SDS011;732;51.698;4.886;2023-02-28T09:57:15;2.43;;;2.10;;
1479;SDS011;732;51.698;4.886;2023-02-28T10:00:05;4.03;;;2.90;;
1479;SDS011;732;51.698;4.886;2023-02-28T10:05:58;3.13;;;2.70;;
1479;SDS011;732;51.698;4.886;2023-02-28T10:08:36;3.20;;;2.90;;
1479;SDS011;732;51.698;4.886;2023-02-28T10:11:12;3.43;;;2.53;;
1479;SDS011;732;51.698;4.886;2023-02-28T10:13:48;3.47;;;2.43;;
1479;SDS011;732;51.698;4.886;2023-02-28T10:16:29;2.83;;;2.43;;
1479;SDS011;732;51.698;4.886;2023-02-28T10:19:04;4.80;;;2.53;;
1479;SDS011;732;51.698;4.886;2023-02-28T10:21:42;2.40;;;2.20;;
1479;SDS011;732;51.698;4.886;2023-02-28T10:24:19;3.73;;;2.33;;
1479;SDS011;732;51.698;4.886;2023-02-28T10:26:56;5.13;;;2.10;;
1479;SDS011;732;51.698;4.886;2023-02-28T10:29:33;2.53;;;1.77;;
1479;SDS011;732;51.698;4.886;2023-02-28T10:32:02;3.67;;;2.23;;
1479;SDS011;732;51.698;4.886;2023-02-28T10:34:32;2.33;;;2.13;;
1479;SDS011;732;51.698;4.886;2023-02-28T10:37:00;2.27;;;2.10;;
1479;SDS011;732;51.698;4.886;2023-02-28T10:39:38;7.03;;;2.80;;
1479;SDS011;732;51.698;4.886;2023-02-28T10:42:19;3.67;;;2.30;;
1479;SDS011;732;51.698;4.886;2023-02-28T10:45:09;2.50;;;2.30;;
1479;SDS011;732;51.698;4.886;2023-02-28T10:47:42;3.23;;;2.50;;
1479;SDS011;732;51.698;4.886;2023-02-28T10:50:29;2.13;;;1.93;;
1479;SDS011;732;51.698;4.886;2023-02-28T10:53:14;4.77;;;2.20;;
1479;SDS011;732;51.698;4.886;2023-02-28T10:55:56;2.87;;;2.57;;
1479;SDS011;732;51.698;4.886;2023-02-28T10:58:28;2.50;;;2.07;;
1479;SDS011;732;51.698;4.886;2023-02-28T11:01:00;2.30;;;2.10;;
1479;SDS011;732;51.698;4.886;2023-02-28T11:03:30;2.60;;;2.20;;
1479;SDS011;732;51.698;4.886;2023-02-28T11:06:04;4.27;;;2.27;;
1479;SDS011;732;51.698;4.886;2023-02-28T11:08:42;3.03;;;2.27;;
1479;SDS011;732;51.698;4.886;2023-02-28T11:11:17;2.20;;;2.00;;
1479;SDS011;732;51.698;4.886;2023-02-28T11:13:49;16.40;;;2.30;;
1479;SDS011;732;51.698;4.886;2023-02-28T11:16:22;6.80;;;2.70;;
1479;SDS011;732;51.698;4.886;2023-02-28T11:19:02;4.53;;;2.00;;
1479;SDS011;732;51.698;4.886;2023-02-28T11:21:36;5.70;;;1.90;;
1479;SDS011;732;51.698;4.886;2023-02-28T11:24:12;2.40;;;2.20;;
1479;SDS011;732;51.698;4.886;2023-02-28T11:26:50;7.50;;;2.33;;
1479;SDS011;732;51.698;4.886;2023-02-28T11:29:20;2.60;;;2.23;;
1479;SDS011;732;51.698;4.886;2023-02-28T11:32:04;2.97;;;2.70;;
1479;SDS011;732;51.698;4.886;2023-02-28T11:34:41;2.37;;;2.17;;
1479;SDS011;732;51.698;4.886;2023-02-28T11:37:11;2.93;;;2.63;;
1479;SDS011;732;51.698;4.886;2023-02-28T11:39:44;2.93;;;2.30;;
1479;SDS011;732;51.698;4.886;2023-02-28T11:42:17;4.03;;;2.20;;
1479;SDS011;732;51.698;4.886;2023-02-28T11:45:17;2.40;;;2.20;;
1479;SDS011;732;51.698;4.886;2023-02-28T11:48:04;3.93;;;2.37;;
1479;SDS011;732;51.698;4.886;2023-02-28T11:50:46;2.43;;;2.23;;
1479;SDS011;732;51.698;4.886;2023-02-28T11:53:39;2.17;;;2.03;;
1479;SDS011;732;51.698;4.886;2023-02-28T11:56:46;2.47;;;2.27;;
1479;SDS011;732;51.698;4.886;2023-02-28T11:59:26;2.50;;;2.30;;
1479;SDS011;732;51.698;4.886;2023-02-28T12:02:20;2.80;;;2.30;;
1479;SDS011;732;51.698;4.886;2023-02-28T12:07:55;2.90;;;2.37;;
1479;SDS011;732;51.698;4.886;2023-02-28T12:10:37;2.20;;;2.10;;
1479;SDS011;732;51.698;4.886;2023-02-28T12:13:21;3.07;;;2.37;;
1479;SDS011;732;51.698;4.886;2023-02-28T12:16:00;3.53;;;2.37;;
1479;SDS011;732;51.698;4.886;2023-02-28T12:19:04;3.80;;;3.20;;
1479;SDS011;732;51.698;4.886;2023-02-28T12:25:13;2.97;;;2.27;;
1479;SDS011;732;51.698;4.886;2023-02-28T12:28:14;2.47;;;2.27;;
1479;SDS011;732;51.698;4.886;2023-02-28T12:30:50;3.17;;;2.57;;
1479;SDS011;732;51.698;4.886;2023-02-28T12:33:25;3.33;;;2.40;;
1479;SDS011;732;51.698;4.886;2023-02-28T12:36:02;4.50;;;2.50;;
1479;SDS011;732;51.698;4.886;2023-02-28T12:38:39;2.47;;;2.17;;
1479;SDS011;732;51.698;4.886;2023-02-28T12:41:12;2.30;;;2.10;;
1479;SDS011;732;51.698;4.886;2023-02-28T12:43:46;7.03;;;2.40;;
1479;SDS011;732;51.698;4.886;2023-02-28T12:46:19;2.80;;;2.43;;
1479;SDS011;732;51.698;4.886;2023-02-28T12:48:53;3.07;;;2.40;;
1479;SDS011;732;51.698;4.886;2023-02-28T12:51:25;2.23;;;2.10;;
1479;SDS011;732;51.698;4.886;2023-02-28T12:54:04;2.67;;;2.30;;
1479;SDS011;732;51.698;4.886;2023-02-28T12:56:42;4.83;;;3.00;;
1479;SDS011;732;51.698;4.886;2023-02-28T12:59:20;2.50;;;2.30;;
1479;SDS011;732;51.698;4.886;2023-02-28T13:02:01;2.80;;;2.60;;
1479;SDS011;732;51.698;4.886;2023-02-28T13:05:26;2.77;;;2.53;;
1479;SDS011;732;51.698;4.886;2023-02-28T13:11:40;3.40;;;2.87;;
1479;SDS011;732;51.698;4.886;2023-02-28T13:14:18;3.10;;;2.73;;
1479;SDS011;732;51.698;4.886;2023-02-28T13:16:58;3.10;;;2.30;;
1479;SDS011;732;51.698;4.886;2023-02-28T13:19:37;2.73;;;2.53;;
1479;SDS011;732;51.698;4.886;2023-02-28T13:22:19;3.80;;;2.50;;
1479;SDS011;732;51.698;4.886;2023-02-28T13:31:27;2.70;;;2.50;;
1479;SDS011;732;51.698;4.886;2023-02-28T13:36:49;2.80;;;2.60;;
1479;SDS011;732;51.698;4.886;2023-02-28T13:42:31;4.33;;;2.80;;
1479;SDS011;732;51.698;4.886;2023-02-28T13:48:04;3.07;;;2.53;;
1479;SDS011;732;51.698;4.886;2023-02-28T13:50:45;3.50;;;2.80;;
1479;SDS011;732;51.698;4.886;2023-02-28T13:53:25;3.30;;;3.00;;
1479;SDS011;732;51.698;4.886;2023-02-28T13:56:23;10.53;;;3.30;;
1479;SDS011;732;51.698;4.886;2023-02-28T13:59:04;3.87;;;2.60;;
1479;SDS011;732;51.698;4.886;2023-02-28T14:01:56;3.07;;;2.87;;
1479;SDS011;732;51.698;4.886;2023-02-28T14:05:02;4.07;;;2.97;;
1479;SDS011;732;51.698;4.886;2023-02-28T14:07:42;5.53;;;3.03;;
1479;SDS011;732;51.698;4.886;2023-02-28T14:10:22;3.07;;;2.73;;
1479;SDS011;732;51.698;4.886;2023-02-28T14:13:00;4.90;;;3.10;;
1479;SDS011;732;51.698;4.886;2023-02-28T14:15:43;4.13;;;3.07;;
1479;SDS011;732;51.698;4.886;2023-02-28T14:18:28;2.90;;;2.53;;
1479;SDS011;732;51.698;4.886;2023-02-28T14:21:01;4.13;;;3.40;;
1479;SDS011;732;51.698;4.886;2023-02-28T14:27:24;3.77;;;3.13;;
1479;SDS011;732;51.698;4.886;2023-02-28T14:33:25;4.40;;;2.77;;
1479;SDS011;732;51.698;4.886;2023-02-28T14:36:07;3.47;;;3.03;;
1479;SDS011;732;51.698;4.886;2023-02-28T14:38:47;6.43;;;3.43;;
1479;SDS011;732;51.698;4.886;2023-02-28T14:41:21;4.10;;;3.20;;
1479;SDS011;732;51.698;4.886;2023-02-28T14:43:57;3.23;;;2.93;;
1479;SDS011;732;51.698;4.886;2023-02-28T14:46:35;5.33;;;3.40;;
1479;SDS011;732;51.698;4.886;2023-02-28T14:49:11;4.63;;;3.90;;
1479;SDS011;732;51.698;4.886;2023-02-28T14:51:44;3.20;;;2.90;;
1479;SDS011;732;51.698;4.886;2023-02-28T14:54:15;3.97;;;3.37;;
1479;SDS011;732;51.698;4.886;2023-02-28T14:56:50;3.10;;;2.70;;
1479;SDS011;732;51.698;4.886;2023-02-28T14:59:26;4.63;;;2.90;;
1479;SDS011;732;51.698;4.886;2023-02-28T15:02:15;3.17;;;2.90;;
1479;SDS011;732;51.698;4.886;2023-02-28T15:04:53;4.23;;;2.90;;
1479;SDS011;732;51.698;4.886;2023-02-28T15:07:23;3.43;;;3.13;;
1479;SDS011;732;51.698;4.886;2023-02-28T15:10:09;7.60;;;3.37;;
1479;SDS011;732;51.698;4.886;2023-02-28T15:12:45;3.77;;;3.33;;
1479;SDS011;732;51.698;4.886;2023-02-28T15:15:22;3.33;;;3.03;;
1479;SDS011;732;51.698;4.886;2023-02-28T15:18:15;5.13;;;3.60;;
1479;SDS011;732;51.698;4.886;2023-02-28T15:20:56;4.13;;;3.73;;
1479;SDS011;732;51.698;4.886;2023-02-28T15:23:29;3.53;;;3.20;;
1479;SDS011;732;51.698;4.886;2023-02-28T15:25:59;4.03;;;3.30;;
1479;SDS011;732;51.698;4.886;2023-02-28T15:28:28;4.37;;;3.60;;
1479;SDS011;732;51.698;4.886;2023-02-28T15:30:59;4.30;;;3.37;;
1479;SDS011;732;51.698;4.886;2023-02-28T15:33:31;5.93;;;3.50;;
1479;SDS011;732;51.698;4.886;2023-02-28T15:36:11;4.23;;;3.83;;
1479;SDS011;732;51.698;4.886;2023-02-28T15:38:43;5.47;;;3.87;;
1479;SDS011;732;51.698;4.886;2023-02-28T15:41:27;4.80;;;3.80;;
1479;SDS011;732;51.698;4.886;2023-02-28T15:44:22;4.10;;;3.70;;
1479;SDS011;732;51.698;4.886;2023-02-28T15:47:00;5.13;;;4.23;;
1479;SDS011;732;51.698;4.886;2023-02-28T15:49:35;6.03;;;3.60;;
1479;SDS011;732;51.698;4.886;2023-02-28T15:52:13;6.80;;;3.70;;
1479;SDS011;732;51.698;4.886;2023-02-28T15:54:44;6.37;;;3.63;;
1479;SDS011;732;51.698;4.886;2023-02-28T15:57:15;4.90;;;3.80;;
1479;SDS011;732;51.698;4.886;2023-02-28T15:59:49;5.03;;;3.83;;
1479;SDS011;732;51.698;4.886;2023-02-28T16:02:22;5.33;;;3.40;;
1479;SDS011;732;51.698;4.886;2023-02-28T16:05:16;4.60;;;3.33;;
1479;SDS011;732;51.698;4.886;2023-02-28T16:07:59;3.83;;;3.30;;
1479;SDS011;732;51.698;4.886;2023-02-28T16:10:42;3.33;;;2.90;;
1479;SDS011;732;51.698;4.886;2023-02-28T16:13:11;6.07;;;3.17;;
1479;SDS011;732;51.698;4.886;2023-02-28T16:15:42;3.70;;;3.20;;
1479;SDS011;732;51.698;4.886;2023-02-28T16:18:12;4.07;;;3.10;;
1479;SDS011;732;51.698;4.886;2023-02-28T16:20:42;5.97;;;4.00;;
1479;SDS011;732;51.698;4.886;2023-02-28T16:23:11;4.30;;;3.43;;
1479;SDS011;732;51.698;4.886;2023-02-28T16:25:40;3.37;;;3.07;;
1479;SDS011;732;51.698;4.886;2023-02-28T16:28:14;9.37;;;3.33;;
1479;SDS011;732;51.698;4.886;2023-02-28T16:30:47;4.33;;;3.93;;
1479;SDS011;732;51.698;4.886;2023-02-28T16:33:19;5.47;;;3.33;;
1479;SDS011;732;51.698;4.886;2023-02-28T16:35:49;5.40;;;3.37;;
1479;SDS011;732;51.698;4.886;2023-02-28T16:38:17;3.50;;;3.20;;
1479;SDS011;732;51.698;4.886;2023-02-28T16:40:47;3.63;;;2.87;;
1479;SDS011;732;51.698;4.886;2023-02-28T16:43:19;4.63;;;3.50;;
1479;SDS011;732;51.698;4.886;2023-02-28T16:45:53;4.17;;;3.50;;
1479;SDS011;732;51.698;4.886;2023-02-28T16:48:26;5.77;;;4.10;;
1479;SDS011;732;51.698;4.886;2023-02-28T16:50:58;4.87;;;3.37;;
1479;SDS011;732;51.698;4.886;2023-02-28T16:53:27;5.40;;;3.80;;